createdAt,value
2022-11-29T00:01:35.394Z,-1.65
2022-11-29T00:03:38.330Z,-1.67
2022-11-29T00:05:41.135Z,-1.69
2022-11-29T00:07:43.855Z,-1.69
2022-11-29T00:09:46.718Z,-1.70
2022-11-29T00:12:08.579Z,-1.71
2022-11-29T00:14:14.287Z,-1.71
2022-11-29T00:16:20.224Z,-1.73
2022-11-29T00:18:23.045Z,-1.75
2022-11-29T00:20:25.835Z,-1.77
2022-11-29T00:22:29.465Z,-1.80
2022-11-29T00:24:34.612Z,-1.83
2022-11-29T00:26:40.795Z,-1.82
2022-11-29T00:28:43.610Z,-1.83
2022-11-29T00:30:47.480Z,-1.82
2022-11-29T00:32:50.314Z,-1.81
2022-11-29T00:34:53.315Z,-1.81
2022-11-29T00:36:56.102Z,-1.79
2022-11-29T00:38:58.980Z,-1.78
2022-11-29T00:41:01.800Z,-1.79
2022-11-29T00:43:04.653Z,-1.82
2022-11-29T00:45:07.893Z,-1.84
2022-11-29T00:47:10.685Z,-1.89
2022-11-29T00:49:13.634Z,-1.95
2022-11-29T00:51:16.475Z,-1.99
2022-11-29T00:53:19.304Z,-2.03
2022-11-29T00:55:22.136Z,-2.06
2022-11-29T00:57:24.895Z,-2.08
2022-11-29T00:59:27.695Z,-2.10
2022-11-29T01:01:30.520Z,-2.11
2022-11-29T01:03:34.416Z,-2.11
2022-11-29T01:05:37.538Z,-2.12
2022-11-29T01:07:40.526Z,-2.13
2022-11-29T01:09:43.359Z,-2.15
2022-11-29T01:11:46.108Z,-2.16
2022-11-29T01:13:50.330Z,-2.16
2022-11-29T01:15:57.525Z,-2.14
2022-11-29T01:18:00.214Z,-2.12
2022-11-29T01:20:04.937Z,-2.11
2022-11-29T01:22:07.774Z,-2.10
2022-11-29T01:24:10.498Z,-2.09
2022-11-29T01:26:22.819Z,-2.07
2022-11-29T01:28:26.087Z,-2.06
2022-11-29T01:30:28.900Z,-2.04
2022-11-29T01:32:31.730Z,-2.03
2022-11-29T01:34:34.482Z,-2.03
2022-11-29T01:36:37.288Z,-2.01
2022-11-29T01:38:42.395Z,-2.01
2022-11-29T01:40:46.300Z,-1.98
2022-11-29T01:42:49.047Z,-1.98
2022-11-29T01:45:24.806Z,-1.98
2022-11-29T01:47:28.529Z,-1.98
2022-11-29T01:49:41.383Z,-1.99
2022-11-29T01:51:51.706Z,-2.02
2022-11-29T01:53:55.483Z,-2.03
2022-11-29T01:56:03.815Z,-2.06
2022-11-29T01:58:09.087Z,-2.09
2022-11-29T02:00:16.419Z,-2.10
2022-11-29T02:02:31.298Z,-2.13
2022-11-29T02:04:35.903Z,-2.15
2022-11-29T02:06:39.783Z,-2.17
2022-11-29T02:08:43.807Z,-2.19
2022-11-29T02:11:12.250Z,-2.22
2022-11-29T02:13:15.010Z,-2.23
2022-11-29T02:15:28.553Z,-2.26
2022-11-29T02:17:34.480Z,-2.28
2022-11-29T02:20:21.522Z,-2.30
2022-11-29T02:22:44.095Z,-2.33
2022-11-29T02:25:18.152Z,-2.35
2022-11-29T02:27:39.078Z,-2.37
2022-11-29T02:29:57.639Z,-2.37
2022-11-29T02:32:12.301Z,-2.35
2022-11-29T02:34:25.499Z,-2.35
2022-11-29T02:36:34.417Z,-2.34
2022-11-29T02:39:09.487Z,-2.34
2022-11-29T02:41:54.392Z,-2.35
2022-11-29T02:44:17.325Z,-2.38
2022-11-29T02:46:56.484Z,-2.41
2022-11-29T02:49:22.497Z,-2.45
2022-11-29T02:51:52.424Z,-2.49
2022-11-29T02:54:21.727Z,-2.51
2022-11-29T02:56:52.271Z,-2.51
2022-11-29T02:59:24.922Z,-2.50
2022-11-29T03:01:37.371Z,-2.50
2022-11-29T03:03:51.111Z,-2.48
2022-11-29T03:06:05.147Z,-2.47
2022-11-29T03:08:45.215Z,-2.48
2022-11-29T03:11:03.326Z,-2.48
2022-11-29T03:13:13.213Z,-2.48
2022-11-29T03:15:31.482Z,-2.48
2022-11-29T03:17:52.929Z,-2.47
2022-11-29T03:20:03.825Z,-2.44
2022-11-29T03:22:36.267Z,-2.43
2022-11-29T03:25:00.118Z,-2.39
2022-11-29T03:27:09.529Z,-2.38
2022-11-29T03:29:29.592Z,-2.37
2022-11-29T03:31:43.236Z,-2.38
2022-11-29T03:33:59.245Z,-2.37
2022-11-29T03:36:19.239Z,-2.37
2022-11-29T03:38:33.056Z,-2.37
2022-11-29T03:40:45.675Z,-2.36
2022-11-29T03:43:06.420Z,-2.35
2022-11-29T03:45:18.891Z,-2.33
2022-11-29T03:47:29.023Z,-2.32
2022-11-29T03:49:45.026Z,-2.31
2022-11-29T03:52:17.450Z,-2.19
2022-11-29T03:54:28.160Z,-1.99
2022-11-29T03:56:32.522Z,-1.92
2022-11-29T03:58:56.936Z,-1.89
2022-11-29T04:01:12.087Z,-1.89
2022-11-29T04:03:17.956Z,-1.89
2022-11-29T04:05:39.719Z,-1.87
2022-11-29T04:08:17.894Z,-1.84
2022-11-29T04:10:39.384Z,-1.84
2022-11-29T04:13:06.957Z,-1.84
2022-11-29T04:15:28.139Z,-1.85
2022-11-29T04:17:51.691Z,-1.85
2022-11-29T04:20:16.464Z,-1.84
2022-11-29T04:22:45.526Z,-1.82
2022-11-29T04:25:03.822Z,-1.80
2022-11-29T04:27:28.361Z,-1.81
2022-11-29T04:30:08.717Z,-1.81
2022-11-29T04:33:00.834Z,-1.83
2022-11-29T04:35:34.382Z,-1.87
2022-11-29T04:38:11.512Z,-1.92
2022-11-29T04:40:48.718Z,-1.97
2022-11-29T04:43:22.565Z,-2.02
2022-11-29T04:45:57.876Z,-2.04
2022-11-29T04:48:22.770Z,-2.06
2022-11-29T04:50:53.810Z,-2.06
2022-11-29T04:52:56.469Z,-2.06
2022-11-29T04:55:24.988Z,-2.07
2022-11-29T04:58:07.174Z,-2.07
2022-11-29T05:00:18.619Z,-2.06
2022-11-29T05:02:49.737Z,-2.06
2022-11-29T05:05:07.591Z,-2.05
2022-11-29T05:07:51.780Z,-2.06
2022-11-29T05:10:20.410Z,-2.07
2022-11-29T05:12:51.389Z,-2.07
2022-11-29T05:15:34.269Z,-2.03
2022-11-29T05:17:58.767Z,-1.87
2022-11-29T05:20:08.355Z,-1.79
2022-11-29T05:22:31.903Z,-1.75
2022-11-29T05:24:47.065Z,-1.73
2022-11-29T05:27:02.398Z,-1.74
2022-11-29T05:29:09.874Z,-1.74
2022-11-29T05:31:29.479Z,-1.68
2022-11-29T05:33:54.319Z,-1.59
2022-11-29T05:36:16.203Z,-1.55
2022-11-29T05:38:37.149Z,-1.53
2022-11-29T05:40:58.942Z,-1.52
2022-11-29T05:43:04.759Z,-1.50
2022-11-29T05:45:39.132Z,-1.49
2022-11-29T05:48:04.967Z,-1.48
2022-11-29T05:50:19.129Z,-1.48
2022-11-29T05:52:30.037Z,-1.47
2022-11-29T05:54:40.867Z,-1.45
2022-11-29T05:57:01.895Z,-1.44
2022-11-29T05:59:27.617Z,-1.43
2022-11-29T06:02:16.532Z,-1.42
2022-11-29T06:04:31.882Z,-1.40
2022-11-29T06:07:03.843Z,-1.37
2022-11-29T06:09:20.608Z,-1.33
2022-11-29T06:11:41.395Z,-1.27
2022-11-29T06:14:05.766Z,-1.23
2022-11-29T06:16:28.357Z,-1.22
2022-11-29T06:18:49.295Z,-1.20
2022-11-29T06:21:17.098Z,-1.18
2022-11-29T06:24:01.705Z,-1.16
2022-11-29T06:26:24.387Z,-1.14
2022-11-29T06:28:36.718Z,-1.11
2022-11-29T06:31:01.341Z,-1.07
2022-11-29T06:33:20.378Z,-1.03
2022-11-29T06:35:38.523Z,-0.99
2022-11-29T06:37:50.796Z,-0.96
2022-11-29T06:39:55.377Z,-0.96
2022-11-29T06:41:58.128Z,-0.94
2022-11-29T06:44:01.147Z,-0.92
2022-11-29T06:46:14.501Z,-0.92
2022-11-29T06:48:26.240Z,-0.89
2022-11-29T06:51:10.656Z,-0.84
2022-11-29T06:53:26.058Z,-0.76
2022-11-29T06:55:47.529Z,-0.67
2022-11-29T06:58:04.692Z,-0.57
2022-11-29T07:00:19.667Z,-0.48
2022-11-29T07:02:25.572Z,-0.39
2022-11-29T07:04:50.665Z,-0.31
2022-11-29T07:06:54.023Z,-0.20
2022-11-29T07:09:01.620Z,-0.12
2022-11-29T07:11:04.698Z,-0.05
2022-11-29T07:13:07.904Z,0.03
2022-11-29T07:15:19.916Z,0.12
2022-11-29T07:17:50.960Z,0.23
2022-11-29T07:20:31.320Z,0.36
2022-11-29T07:22:44.746Z,0.50
2022-11-29T07:24:50.399Z,0.61
2022-11-29T07:27:15.701Z,0.72
2022-11-29T07:29:31.941Z,0.84
2022-11-29T07:31:46.862Z,0.95
2022-11-29T07:33:49.684Z,1.05
2022-11-29T07:36:04.682Z,1.16
2022-11-29T07:38:18.418Z,1.26
2022-11-29T07:40:53.418Z,1.35
2022-11-29T07:43:37.008Z,1.44
2022-11-29T07:45:40.326Z,1.58
2022-11-29T07:47:43.147Z,1.68
2022-11-29T07:49:45.960Z,1.78
2022-11-29T07:51:49.035Z,1.90
2022-11-29T07:53:51.948Z,2.02
2022-11-29T07:55:54.859Z,2.13
2022-11-29T07:57:57.687Z,2.23
2022-11-29T08:00:00.552Z,2.35
2022-11-29T08:02:08.788Z,2.48
2022-11-29T08:04:15.108Z,2.62
2022-11-29T08:06:25.542Z,2.74
2022-11-29T08:08:28.781Z,2.87
2022-11-29T08:10:31.961Z,2.99
2022-11-29T08:12:35.047Z,3.12
2022-11-29T08:14:37.940Z,3.24
2022-11-29T08:16:40.747Z,3.34
2022-11-29T08:18:44.338Z,3.38
2022-11-29T08:20:47.299Z,3.42
2022-11-29T08:22:55.361Z,3.47
2022-11-29T08:25:00.031Z,3.54
2022-11-29T08:27:02.855Z,3.57
2022-11-29T08:29:05.815Z,3.65
2022-11-29T08:31:10.878Z,3.81
2022-11-29T08:33:13.719Z,3.93
2022-11-29T08:35:18.184Z,4.04
2022-11-29T08:37:21.063Z,4.14
2022-11-29T08:39:23.938Z,4.26
2022-11-29T08:41:26.737Z,4.39
2022-11-29T08:43:30.743Z,4.48
2022-11-29T08:45:33.655Z,4.57
2022-11-29T08:47:38.085Z,4.63
2022-11-29T08:50:00.996Z,4.69
2022-11-29T08:52:22.564Z,4.81
2022-11-29T08:54:25.350Z,4.97
2022-11-29T08:58:50.851Z,5.10
2022-11-29T09:00:53.643Z,5.10
2022-11-29T09:03:16.384Z,5.11
2022-11-29T09:05:19.390Z,5.16
2022-11-29T09:07:22.332Z,5.22
2022-11-29T09:09:25.100Z,5.30
2022-11-29T09:11:29.918Z,5.32
2022-11-29T09:13:32.724Z,5.35
2022-11-29T09:15:37.887Z,5.39
2022-11-29T09:17:40.836Z,5.47
2022-11-29T09:19:43.593Z,5.55
2022-11-29T09:21:46.448Z,5.60
2022-11-29T09:23:49.227Z,5.66
2022-11-29T09:25:52.114Z,5.77
2022-11-29T09:27:58.221Z,5.80
2022-11-29T09:30:00.963Z,5.77
2022-11-29T09:32:04.323Z,5.76
2022-11-29T09:34:07.128Z,5.70
2022-11-29T09:36:11.099Z,5.70
2022-11-29T09:38:14.752Z,5.70
2022-11-29T09:40:22.551Z,5.70
2022-11-29T09:42:35.671Z,5.79
2022-11-29T09:45:05.168Z,5.85
2022-11-29T09:47:35.954Z,5.86
2022-11-29T09:50:16.462Z,5.86
2022-11-29T09:52:24.850Z,5.86
2022-11-29T09:54:43.879Z,5.89
2022-11-29T09:56:51.463Z,5.91
2022-11-29T09:59:13.661Z,5.93
2022-11-29T10:01:23.496Z,5.93
2022-11-29T10:03:37.974Z,5.98
2022-11-29T10:05:51.268Z,6.00
2022-11-29T10:08:08.833Z,6.02
2022-11-29T10:10:23.203Z,6.03
2022-11-29T10:12:41.380Z,6.06
2022-11-29T10:14:56.190Z,6.11
2022-11-29T10:17:39.051Z,6.18
2022-11-29T10:19:47.452Z,6.29
2022-11-29T10:21:59.955Z,6.40
2022-11-29T10:24:18.015Z,6.48
2022-11-29T10:26:25.889Z,6.56
2022-11-29T10:28:33.605Z,6.62
2022-11-29T10:30:36.722Z,6.67
2022-11-29T10:32:45.545Z,6.72
2022-11-29T10:34:49.591Z,6.79
2022-11-29T10:36:59.557Z,6.83
2022-11-29T10:39:26.210Z,6.80
2022-11-29T10:41:29.080Z,6.77
2022-11-29T10:43:32.011Z,6.66
2022-11-29T10:45:39.679Z,6.58
2022-11-29T10:47:47.969Z,6.53
2022-11-29T10:49:50.735Z,6.48
2022-11-29T10:51:53.852Z,6.43
2022-11-29T10:54:02.861Z,6.34
2022-11-29T10:56:19.335Z,6.22
2022-11-29T10:58:28.299Z,6.12
2022-11-29T11:00:33.844Z,6.07
2022-11-29T11:02:40.118Z,6.02
2022-11-29T11:04:46.394Z,5.95
2022-11-29T11:06:52.377Z,5.91
2022-11-29T11:08:57.581Z,5.89
2022-11-29T11:11:05.288Z,5.92
2022-11-29T11:13:22.342Z,5.96
2022-11-29T11:15:25.098Z,6.03
2022-11-29T11:17:32.823Z,6.09
2022-11-29T11:19:36.410Z,6.16
2022-11-29T11:21:39.488Z,6.19
2022-11-29T11:24:03.274Z,6.20
2022-11-29T11:26:08.921Z,6.24
2022-11-29T11:28:16.559Z,6.28
2022-11-29T11:30:25.637Z,6.33
2022-11-29T11:32:29.145Z,6.38
2022-11-29T11:34:34.563Z,6.42
2022-11-29T11:36:37.418Z,6.44
2022-11-29T11:38:56.273Z,6.47
2022-11-29T11:41:17.307Z,6.46
2022-11-29T11:43:21.966Z,6.46
2022-11-29T11:45:33.730Z,6.48
2022-11-29T11:47:43.211Z,6.48
2022-11-29T11:49:50.304Z,6.50
2022-11-29T11:51:53.187Z,6.47
2022-11-29T11:53:57.517Z,6.47
2022-11-29T11:56:01.828Z,6.44
2022-11-29T11:58:13.618Z,6.43
2022-11-29T12:03:02.456Z,6.25
2022-11-29T12:05:13.465Z,6.16
2022-11-29T12:07:51.985Z,6.05
2022-11-29T12:09:56.646Z,5.89
2022-11-29T12:12:18.003Z,5.77
2022-11-29T12:14:50.198Z,5.64
2022-11-29T12:17:03.404Z,5.51
2022-11-29T12:19:18.154Z,5.43
2022-11-29T12:21:26.421Z,5.36
2022-11-29T12:23:40.177Z,5.33
2022-11-29T12:26:06.058Z,5.31
2022-11-29T12:28:19.813Z,5.32
2022-11-29T12:30:23.471Z,5.32
2022-11-29T12:32:36.469Z,5.34
2022-11-29T12:35:18.842Z,5.36
2022-11-29T12:37:50.173Z,5.38
2022-11-29T12:40:22.358Z,5.44
2022-11-29T12:42:46.510Z,5.48
2022-11-29T12:45:26.965Z,5.52
2022-11-29T12:47:51.555Z,5.55
2022-11-29T12:50:16.346Z,5.60
2022-11-29T12:52:37.420Z,5.62
2022-11-29T12:54:46.562Z,5.64
2022-11-29T12:57:01.870Z,5.67
2022-11-29T12:59:34.208Z,5.65
2022-11-29T13:02:00.684Z,5.67
2022-11-29T13:04:22.332Z,5.68
2022-11-29T13:06:36.505Z,5.67
2022-11-29T13:08:54.208Z,5.64
2022-11-29T13:11:36.583Z,5.61
2022-11-29T13:13:43.186Z,5.57
2022-11-29T13:16:29.238Z,5.54
2022-11-29T13:18:48.800Z,5.50
2022-11-29T13:21:07.821Z,5.47
2022-11-29T13:23:46.000Z,5.42
2022-11-29T13:25:54.606Z,5.36
2022-11-29T13:28:17.982Z,5.32
2022-11-29T13:30:21.050Z,5.28
2022-11-29T13:32:37.388Z,5.25
2022-11-29T13:34:45.600Z,5.20
2022-11-29T13:36:54.221Z,5.14
2022-11-29T13:39:10.602Z,5.06
2022-11-29T13:41:35.473Z,4.99
2022-11-29T13:44:13.478Z,4.91
2022-11-29T13:46:49.925Z,4.83
2022-11-29T13:48:54.534Z,4.74
2022-11-29T13:50:58.074Z,4.67
2022-11-29T13:53:11.880Z,4.60
2022-11-29T13:55:15.514Z,4.53
2022-11-29T13:57:18.437Z,4.48
2022-11-29T13:59:32.882Z,4.43
2022-11-29T14:01:45.521Z,4.37
2022-11-29T14:04:14.611Z,4.29
2022-11-29T14:06:38.096Z,4.20
2022-11-29T14:09:17.436Z,4.11
2022-11-29T14:11:07.133Z,3.99
2022-11-29T14:13:15.543Z,3.90
2022-11-29T14:15:29.461Z,3.79
2022-11-29T14:17:45.563Z,3.66
2022-11-29T14:19:48.471Z,3.53
2022-11-29T14:22:03.039Z,3.41
2022-11-29T14:24:34.035Z,3.26
2022-11-29T14:26:36.909Z,3.12
2022-11-29T14:28:40.223Z,3.01
2022-11-29T14:30:51.383Z,2.89
2022-11-29T14:33:18.509Z,2.76
2022-11-29T14:35:49.745Z,2.63
2022-11-29T14:38:04.347Z,2.51
2022-11-29T14:40:26.067Z,2.42
2022-11-29T14:42:29.627Z,2.33
2022-11-29T14:44:34.495Z,2.24
2022-11-29T14:46:37.568Z,2.15
2022-11-29T14:48:58.751Z,2.06
2022-11-29T14:51:09.158Z,1.97
2022-11-29T14:53:48.913Z,1.89
2022-11-29T14:55:52.100Z,1.79
2022-11-29T14:58:06.388Z,1.72
2022-11-29T15:00:14.274Z,1.64
2022-11-29T15:02:41.360Z,1.58
2022-11-29T15:04:45.124Z,1.50
2022-11-29T15:06:53.121Z,1.43
2022-11-29T15:09:03.477Z,1.36
2022-11-29T15:11:20.022Z,1.30
2022-11-29T15:13:29.168Z,1.25
2022-11-29T15:15:36.720Z,1.21
2022-11-29T15:17:55.559Z,1.16
2022-11-29T15:20:04.397Z,1.10
2022-11-29T15:22:24.215Z,1.04
2022-11-29T15:24:28.939Z,0.99
2022-11-29T15:26:32.805Z,0.94
2022-11-29T15:28:35.681Z,0.90
2022-11-29T15:30:40.774Z,0.85
2022-11-29T15:32:43.726Z,0.80
2022-11-29T15:34:51.941Z,0.74
2022-11-29T15:36:54.913Z,0.72
2022-11-29T15:38:59.265Z,0.69
2022-11-29T15:41:03.017Z,0.65
2022-11-29T15:43:35.140Z,0.64
2022-11-29T15:45:39.347Z,0.62
2022-11-29T15:47:43.019Z,0.61
2022-11-29T15:49:46.234Z,0.61
2022-11-29T15:51:56.088Z,0.62
2022-11-29T15:54:13.330Z,0.63
2022-11-29T15:56:42.895Z,0.63
2022-11-29T15:58:47.918Z,0.62
2022-11-29T16:00:52.461Z,0.62
2022-11-29T16:02:59.793Z,0.62
2022-11-29T16:05:16.495Z,0.63
2022-11-29T16:07:22.235Z,0.66
2022-11-29T16:09:48.314Z,0.67
2022-11-29T16:11:51.980Z,0.69
2022-11-29T16:14:12.693Z,0.70
2022-11-29T16:16:23.102Z,0.71
2022-11-29T16:18:25.989Z,0.71
2022-11-29T16:20:29.083Z,0.72
2022-11-29T16:22:32.595Z,0.72
2022-11-29T16:24:38.223Z,0.71
2022-11-29T16:26:44.594Z,0.69
2022-11-29T16:28:50.208Z,0.67
2022-11-29T16:30:52.997Z,0.64
2022-11-29T16:32:59.348Z,0.61
2022-11-29T16:35:27.514Z,0.59
2022-11-29T16:37:37.012Z,0.55
2022-11-29T16:39:40.202Z,0.51
2022-11-29T16:41:43.007Z,0.47
2022-11-29T16:43:53.938Z,0.42
2022-11-29T16:46:22.289Z,0.36
2022-11-29T16:48:27.682Z,0.29
2022-11-29T16:50:32.851Z,0.24
2022-11-29T16:52:35.620Z,0.20
2022-11-29T16:54:38.397Z,0.15
2022-11-29T16:56:41.231Z,0.11
2022-11-29T16:59:25.304Z,0.05
2022-11-29T17:01:23.778Z,-0.01
2022-11-29T17:03:31.259Z,-0.08
2022-11-29T17:05:34.121Z,-0.13
2022-11-29T17:07:39.524Z,-0.18
2022-11-29T17:09:43.109Z,-0.23
2022-11-29T17:11:45.933Z,-0.27
2022-11-29T17:13:52.904Z,-0.34
2022-11-29T17:15:55.831Z,-0.42
2022-11-29T17:17:58.708Z,-0.49
2022-11-29T17:20:01.626Z,-0.55
2022-11-29T17:22:04.587Z,-0.62
2022-11-29T17:24:11.745Z,-0.70
2022-11-29T17:26:15.654Z,-0.78
2022-11-29T17:28:18.499Z,-0.85
2022-11-29T17:30:21.320Z,-0.92
2022-11-29T17:32:26.898Z,-0.99
2022-11-29T17:34:30.352Z,-1.05
2022-11-29T17:36:33.561Z,-1.10
2022-11-29T17:38:37.049Z,-1.16
2022-11-29T17:40:40.181Z,-1.21
2022-11-29T17:42:42.978Z,-1.25
2022-11-29T17:44:45.781Z,-1.32
2022-11-29T17:46:48.576Z,-1.38
2022-11-29T17:48:52.295Z,-1.40
2022-11-29T17:51:00.106Z,-1.42
2022-11-29T17:53:03.210Z,-1.43
2022-11-29T17:55:06.619Z,-1.46
2022-11-29T17:57:09.511Z,-1.48
2022-11-29T17:59:12.348Z,-1.51
2022-11-29T18:01:19.348Z,-1.55
2022-11-29T18:03:22.146Z,-1.57
2022-11-29T18:05:26.226Z,-1.59
2022-11-29T18:07:30.908Z,-1.59
2022-11-29T18:09:33.929Z,-1.60
2022-11-29T18:11:47.112Z,-1.60
2022-11-29T18:13:52.999Z,-1.64
2022-11-29T18:16:06.954Z,-1.64
2022-11-29T18:18:10.798Z,-1.64
2022-11-29T18:20:14.461Z,-1.62
2022-11-29T18:22:17.237Z,-1.62
2022-11-29T18:24:20.198Z,-1.59
2022-11-29T18:26:24.792Z,-1.56
2022-11-29T18:28:29.582Z,-1.56
2022-11-29T18:30:32.564Z,-1.56
2022-11-29T18:32:35.409Z,-1.55
2022-11-29T18:34:38.244Z,-1.55
2022-11-29T18:36:43.802Z,-1.55
2022-11-29T18:38:47.752Z,-1.57
2022-11-29T18:40:50.742Z,-1.58
2022-11-29T18:42:53.779Z,-1.58
2022-11-29T18:44:58.849Z,-1.58
2022-11-29T18:47:03.951Z,-1.63
2022-11-29T18:49:09.108Z,-1.64
2022-11-29T18:51:18.320Z,-1.66
2022-11-29T18:53:21.168Z,-1.68
2022-11-29T18:55:24.995Z,-1.71
2022-11-29T18:57:33.541Z,-1.70
2022-11-29T18:59:36.854Z,-1.69
2022-11-29T19:01:42.849Z,-1.68
2022-11-29T19:03:50.546Z,-1.66
2022-11-29T19:05:54.512Z,-1.66
2022-11-29T19:07:57.397Z,-1.69
2022-11-29T19:10:00.254Z,-1.69
2022-11-29T19:12:04.051Z,-1.71
2022-11-29T19:14:11.697Z,-1.71
2022-11-29T19:16:18.162Z,-1.74
2022-11-29T19:18:22.308Z,-1.73
2022-11-29T19:20:25.065Z,-1.73
2022-11-29T19:22:29.532Z,-1.72
2022-11-29T19:24:32.379Z,-1.72
2022-11-29T19:26:35.204Z,-1.74
2022-11-29T19:28:39.940Z,-1.73
2022-11-29T19:30:42.933Z,-1.73
2022-11-29T19:32:45.743Z,-1.73
2022-11-29T19:34:48.503Z,-1.70
2022-11-29T19:36:51.243Z,-1.69
2022-11-29T19:38:54.742Z,-1.68
2022-11-29T19:40:57.708Z,-1.66
2022-11-29T19:43:00.556Z,-1.70
2022-11-29T19:45:19.624Z,-1.76
2022-11-29T19:47:22.542Z,-1.79
2022-11-29T19:49:25.379Z,-1.77
2022-11-29T19:51:30.125Z,-1.75
2022-11-29T19:53:33.852Z,-1.69
2022-11-29T19:55:43.799Z,-1.68
2022-11-29T19:57:47.101Z,-1.72
2022-11-29T19:59:49.811Z,-1.74
2022-11-29T20:01:52.599Z,-1.75
2022-11-29T20:03:56.640Z,-1.75
2022-11-29T20:06:00.140Z,-1.74
2022-11-29T20:08:03.003Z,-1.73
2022-11-29T20:10:08.161Z,-1.72
2022-11-29T20:12:11.118Z,-1.73
2022-11-29T20:14:14.735Z,-1.75
2022-11-29T20:16:19.329Z,-1.73
2022-11-29T20:18:22.164Z,-1.71
2022-11-29T20:20:25.168Z,-1.71
2022-11-29T20:22:28.084Z,-1.70
2022-11-29T20:24:35.330Z,-1.71
2022-11-29T20:26:45.824Z,-1.70
2022-11-29T20:28:48.618Z,-1.71
2022-11-29T20:30:51.505Z,-1.72
2022-11-29T20:32:54.603Z,-1.76
2022-11-29T20:34:59.220Z,-1.80
2022-11-29T20:37:21.266Z,-1.83
2022-11-29T20:39:51.981Z,-1.87
2022-11-29T20:42:25.976Z,-1.87
2022-11-29T20:44:43.111Z,-1.91
2022-11-29T20:46:46.097Z,-1.98
2022-11-29T20:48:49.636Z,-2.03
2022-11-29T20:51:02.560Z,-2.08
2022-11-29T20:53:43.439Z,-2.08
2022-11-29T20:55:48.515Z,-2.10
2022-11-29T20:57:51.417Z,-2.10
2022-11-29T20:59:54.362Z,-2.07
2022-11-29T21:01:57.697Z,-2.07
2022-11-29T21:04:00.747Z,-2.09
2022-11-29T21:06:05.756Z,-2.14
2022-11-29T21:08:08.563Z,-2.13
2022-11-29T21:10:11.957Z,-2.14
2022-11-29T21:12:15.296Z,-2.10
2022-11-29T21:14:18.553Z,-2.03
2022-11-29T21:16:28.490Z,-1.96
2022-11-29T21:18:31.805Z,-1.91
2022-11-29T21:20:34.760Z,-1.87
2022-11-29T21:22:51.842Z,-1.83
2022-11-29T21:24:57.229Z,-1.78
2022-11-29T21:27:00.302Z,-1.73
2022-11-29T21:29:15.091Z,-1.70
2022-11-29T21:31:19.138Z,-1.70
2022-11-29T21:33:22.303Z,-1.79
2022-11-29T21:35:25.129Z,-1.88
2022-11-29T21:37:30.952Z,-1.95
2022-11-29T21:39:34.188Z,-1.96
2022-11-29T21:41:37.037Z,-1.98
2022-11-29T21:44:05.401Z,-2.00
2022-11-29T21:46:03.495Z,-2.00
2022-11-29T21:48:29.321Z,-2.00
2022-11-29T21:50:32.036Z,-2.01
2022-11-29T21:52:34.868Z,-2.02
2022-11-29T21:54:37.684Z,-2.05
2022-11-29T21:56:40.616Z,-2.07
2022-11-29T21:58:43.468Z,-2.07
2022-11-29T22:00:46.247Z,-2.05
2022-11-29T22:02:49.081Z,-2.03
2022-11-29T22:04:52.022Z,-2.03
2022-11-29T22:06:55.016Z,-2.01
2022-11-29T22:09:05.565Z,-1.98
2022-11-29T22:11:14.388Z,-2.02
2022-11-29T22:13:17.164Z,-2.01
2022-11-29T22:15:24.492Z,-1.97
2022-11-29T22:17:28.064Z,-1.99
2022-11-29T22:19:34.132Z,-2.00
2022-11-29T22:21:37.127Z,-1.99
2022-11-29T22:23:40.197Z,-2.03
2022-11-29T22:25:42.920Z,-2.13
2022-11-29T22:27:45.674Z,-2.12
2022-11-29T22:29:49.037Z,-2.09
2022-11-29T22:31:54.766Z,-2.05
2022-11-29T22:33:57.689Z,-2.03
2022-11-29T22:36:09.583Z,-1.98
2022-11-29T22:38:12.414Z,-1.98
2022-11-29T22:40:15.989Z,-1.95
2022-11-29T22:42:18.772Z,-1.98
2022-11-29T22:44:21.990Z,-2.02
2022-11-29T22:46:26.888Z,-2.01
2022-11-29T22:48:33.006Z,-2.01
2022-11-29T22:50:38.396Z,-2.00
2022-11-29T22:52:41.158Z,-2.01
2022-11-29T22:54:44.062Z,-2.07
2022-11-29T22:56:47.478Z,-2.12
2022-11-29T22:58:50.766Z,-2.11
2022-11-29T23:01:01.166Z,-2.08
2022-11-29T23:03:03.962Z,-2.06
2022-11-29T23:05:06.923Z,-2.04
2022-11-29T23:07:09.705Z,-2.11
2022-11-29T23:09:19.972Z,-2.13
2022-11-29T23:11:28.367Z,-2.14
2022-11-29T23:13:34.148Z,-2.15
2022-11-29T23:15:36.955Z,-2.14
2022-11-29T23:17:39.857Z,-2.12
2022-11-29T23:19:42.652Z,-2.14
2022-11-29T23:21:46.326Z,-2.15
2022-11-29T23:23:54.647Z,-2.16
2022-11-29T23:25:59.502Z,-2.20
2022-11-29T23:28:02.311Z,-2.23
2022-11-29T23:30:06.394Z,-2.24
2022-11-29T23:32:09.218Z,-2.28
2022-11-29T23:34:12.362Z,-2.26
2022-11-29T23:36:16.923Z,-2.27
2022-11-29T23:38:19.721Z,-2.31
2022-11-29T23:40:22.511Z,-2.38
2022-11-29T23:42:25.728Z,-2.34
2022-11-29T23:44:28.544Z,-2.40
2022-11-29T23:46:32.128Z,-2.39
2022-11-29T23:48:35.039Z,-2.40
2022-11-29T23:50:37.818Z,-2.45
2022-11-29T23:52:40.567Z,-2.44
2022-11-29T23:54:43.468Z,-2.38
2022-11-29T23:56:46.364Z,-2.34
2022-11-29T23:58:49.209Z,-2.29
